createdAt,value
2023-02-16T00:01:59.834Z,101799.81
2023-02-16T00:04:28.874Z,101795.09
2023-02-16T00:06:56.414Z,101795.09
2023-02-16T00:09:24.249Z,101788.69
2023-02-16T00:12:11.253Z,101783.13
2023-02-16T00:14:39.568Z,101787.03
2023-02-16T00:17:06.613Z,101786.22
2023-02-16T00:19:38.937Z,101794.34
2023-02-16T00:22:07.120Z,101776.84
2023-02-16T00:24:34.736Z,101789.44
2023-02-16T00:27:02.016Z,101784.16
2023-02-16T00:29:33.784Z,101782.03
2023-02-16T00:32:01.954Z,101775.44
2023-02-16T00:34:36.794Z,101775.25
2023-02-16T00:37:08.492Z,101772.78
2023-02-16T00:39:35.898Z,101768.38
2023-02-16T00:42:12.750Z,101759.81
2023-02-16T00:44:48.366Z,101758.81
2023-02-16T00:47:37.378Z,101760.25
2023-02-16T00:50:16.132Z,101760.56
2023-02-16T00:52:43.149Z,101761.38
2023-02-16T00:55:12.323Z,101760.88
2023-02-16T00:58:12.461Z,101758.22
2023-02-16T01:00:46.313Z,101757.06
2023-02-16T01:03:23.976Z,101758.81
2023-02-16T01:06:11.009Z,101750.47
2023-02-16T01:08:58.496Z,101745.25
2023-02-16T01:11:25.585Z,101757.78
2023-02-16T01:13:53.656Z,101756.44
2023-02-16T01:16:26.068Z,101759.00
2023-02-16T01:18:52.948Z,101762.59
2023-02-16T01:21:20.006Z,101765.72
2023-02-16T01:23:46.358Z,101757.97
2023-02-16T01:26:17.092Z,101765.28
2023-02-16T01:28:44.419Z,101764.78
2023-02-16T01:31:12.342Z,101756.25
2023-02-16T01:33:39.057Z,101752.16
2023-02-16T01:36:06.789Z,101757.50
2023-02-16T01:38:33.142Z,101755.31
2023-02-16T01:41:24.657Z,101748.53
2023-02-16T01:43:58.410Z,101758.31
2023-02-16T01:46:32.976Z,101761.19
2023-02-16T01:48:59.996Z,101745.44
2023-02-16T01:51:36.394Z,101750.06
2023-02-16T01:54:17.572Z,101757.38
2023-02-16T01:56:50.805Z,101748.63
2023-02-16T01:59:44.206Z,101753.75
2023-02-16T02:02:23.108Z,101760.22
2023-02-16T02:05:17.030Z,101758.06
2023-02-16T02:07:52.828Z,101754.31
2023-02-16T02:10:22.190Z,101752.47
2023-02-16T02:13:13.466Z,101748.47
2023-02-16T02:15:40.186Z,101749.38
2023-02-16T02:18:09.035Z,101747.78
2023-02-16T02:21:24.771Z,101744.91
2023-02-16T02:24:20.339Z,101745.28
2023-02-16T02:27:01.437Z,101740.63
2023-02-16T02:29:58.310Z,101747.09
2023-02-16T02:32:55.794Z,101739.97
2023-02-16T02:35:51.826Z,101731.75
2023-02-16T02:38:30.004Z,101731.50
2023-02-16T02:41:08.467Z,101737.09
2023-02-16T02:43:41.264Z,101727.16
2023-02-16T02:46:12.993Z,101726.09
2023-02-16T02:48:39.698Z,101730.59
2023-02-16T02:51:27.793Z,101727.38
2023-02-16T02:54:23.720Z,101728.28
2023-02-16T02:57:25.967Z,101724.47
2023-02-16T03:00:20.602Z,101719.81
2023-02-16T03:02:50.840Z,101707.41
2023-02-16T03:05:18.885Z,101702.44
2023-02-16T03:07:48.096Z,101703.03
2023-02-16T03:10:45.162Z,101712.47
2023-02-16T03:13:14.979Z,101708.88
2023-02-16T03:15:43.648Z,101708.38
2023-02-16T03:18:31.456Z,101707.53
2023-02-16T03:21:17.570Z,101699.50
2023-02-16T03:24:03.825Z,101690.16
2023-02-16T03:26:51.094Z,101690.16
2023-02-16T03:29:22.635Z,101697.66
2023-02-16T03:31:51.772Z,101699.59
2023-02-16T03:34:19.441Z,101700.41
2023-02-16T03:36:50.444Z,101702.34
2023-02-16T03:39:18.895Z,101695.69
2023-02-16T03:41:50.365Z,101685.97
2023-02-16T03:44:17.553Z,101679.00
2023-02-16T03:46:44.961Z,101685.66
2023-02-16T03:49:12.064Z,101677.66
2023-02-16T03:51:38.637Z,101674.91
2023-02-16T03:54:04.952Z,101667.72
2023-02-16T03:56:31.361Z,101667.19
2023-02-16T03:58:57.920Z,101678.25
2023-02-16T04:01:24.405Z,101680.50
2023-02-16T04:03:50.801Z,101675.25
2023-02-16T04:06:17.336Z,101670.03
2023-02-16T04:08:43.828Z,101676.69
2023-02-16T04:11:28.637Z,101675.88
2023-02-16T04:13:54.963Z,101678.91
2023-02-16T04:16:21.304Z,101682.53
2023-02-16T04:18:47.723Z,101672.03
2023-02-16T04:21:14.313Z,101679.53
2023-02-16T04:23:40.850Z,101679.00
2023-02-16T04:26:07.219Z,101685.97
2023-02-16T04:28:33.642Z,101686.53
2023-02-16T04:31:00.138Z,101686.34
2023-02-16T04:33:26.773Z,101686.63
2023-02-16T04:35:53.369Z,101692.44
2023-02-16T04:38:19.726Z,101686.38
2023-02-16T04:40:46.340Z,101691.91
2023-02-16T04:43:13.977Z,101675.59
2023-02-16T04:45:40.265Z,101680.31
2023-02-16T04:48:08.446Z,101675.59
2023-02-16T04:50:36.845Z,101678.38
2023-02-16T04:53:03.352Z,101674.47
2023-02-16T04:55:31.012Z,101673.38
2023-02-16T04:57:57.671Z,101673.06
2023-02-16T05:00:24.106Z,101671.66
2023-02-16T05:02:55.884Z,101675.25
2023-02-16T05:05:22.521Z,101674.66
2023-02-16T05:07:49.143Z,101673.53
2023-02-16T05:10:15.579Z,101664.94
2023-02-16T05:13:00.332Z,101674.06
2023-02-16T05:15:27.133Z,101670.16
2023-02-16T05:17:54.962Z,101665.44
2023-02-16T05:20:41.345Z,101682.06
2023-02-16T05:23:07.954Z,101672.13
2023-02-16T05:25:34.338Z,101669.66
2023-02-16T05:28:01.065Z,101669.94
2023-02-16T05:30:27.615Z,101674.13
2023-02-16T05:32:59.275Z,101676.66
2023-02-16T05:35:25.654Z,101678.06
2023-02-16T05:37:53.350Z,101680.31
2023-02-16T05:40:20.156Z,101686.16
2023-02-16T05:42:47.323Z,101685.94
2023-02-16T05:45:14.133Z,101688.19
2023-02-16T05:47:40.781Z,101682.09
2023-02-16T05:50:07.839Z,101688.75
2023-02-16T05:52:43.287Z,101684.34
2023-02-16T05:55:11.318Z,101688.25
2023-02-16T05:57:37.971Z,101691.84
2023-02-16T06:00:05.888Z,101686.56
2023-02-16T06:02:32.225Z,101683.81
2023-02-16T06:05:01.896Z,101682.72
2023-02-16T06:07:34.039Z,101677.19
2023-02-16T06:10:00.967Z,101678.19
2023-02-16T06:12:31.972Z,101688.94
2023-02-16T06:14:58.420Z,101684.16
2023-02-16T06:17:25.608Z,101682.66
2023-02-16T06:20:02.121Z,101687.00
2023-02-16T06:22:34.510Z,101691.34
2023-02-16T06:25:02.458Z,101694.28
2023-02-16T06:27:31.293Z,101693.09
2023-02-16T06:29:59.406Z,101694.97
2023-02-16T06:32:28.438Z,101682.41
2023-02-16T06:35:01.105Z,101689.25
2023-02-16T06:37:27.875Z,101688.38
2023-02-16T06:39:54.689Z,101688.88
2023-02-16T06:42:21.304Z,101693.81
2023-02-16T06:44:48.083Z,101686.88
2023-02-16T06:47:14.786Z,101692.94
2023-02-16T06:49:41.266Z,101690.38
2023-02-16T06:52:07.850Z,101696.97
2023-02-16T06:54:34.259Z,101691.38
2023-02-16T06:57:00.823Z,101688.53
2023-02-16T06:59:27.346Z,101684.03
2023-02-16T07:01:58.781Z,101680.84
2023-02-16T07:04:29.144Z,101684.34
2023-02-16T07:06:55.774Z,101688.69
2023-02-16T07:09:22.142Z,101687.19
2023-02-16T07:11:53.197Z,101685.66
2023-02-16T07:14:22.070Z,101683.81
2023-02-16T07:16:48.582Z,101692.25
2023-02-16T07:19:15.050Z,101705.13
2023-02-16T07:21:41.519Z,101693.31
2023-02-16T07:24:08.931Z,101695.38
2023-02-16T07:26:38.670Z,101690.75
2023-02-16T07:29:05.644Z,101686.44
2023-02-16T07:31:33.899Z,101692.41
2023-02-16T07:34:01.071Z,101697.22
2023-02-16T07:36:27.843Z,101690.72
2023-02-16T07:38:55.024Z,101686.41
2023-02-16T07:41:22.379Z,101687.44
2023-02-16T07:43:48.901Z,101690.91
2023-02-16T07:46:15.202Z,101691.63
2023-02-16T07:48:43.982Z,101696.25
2023-02-16T07:51:32.979Z,101695.94
2023-02-16T07:54:00.692Z,101703.56
2023-02-16T07:56:30.341Z,101696.53
2023-02-16T07:58:58.549Z,101696.47
2023-02-16T08:01:25.518Z,101696.63
2023-02-16T08:03:58.064Z,101696.00
2023-02-16T08:06:24.510Z,101688.38
2023-02-16T08:08:50.956Z,101686.63
2023-02-16T08:11:22.880Z,101684.03
2023-02-16T08:13:49.873Z,101684.72
2023-02-16T08:16:24.814Z,101669.88
2023-02-16T08:18:53.072Z,101677.78
2023-02-16T08:21:23.733Z,101670.13
2023-02-16T08:24:01.884Z,101669.69
2023-02-16T08:26:33.197Z,101669.44
2023-02-16T08:29:03.653Z,101673.38
2023-02-16T08:31:31.882Z,101673.44
2023-02-16T08:34:01.403Z,101669.06
2023-02-16T08:36:35.038Z,101677.97
2023-02-16T08:39:04.170Z,101687.47
2023-02-16T08:41:36.402Z,101684.44
2023-02-16T08:44:04.398Z,101681.66
2023-02-16T08:46:35.603Z,101675.88
2023-02-16T08:49:05.430Z,101679.47
2023-02-16T08:51:35.092Z,101676.72
2023-02-16T08:54:05.844Z,101676.25
2023-02-16T08:56:37.353Z,101692.16
2023-02-16T08:59:04.470Z,101690.53
2023-02-16T09:01:31.428Z,101699.22
2023-02-16T09:03:58.933Z,101704.84
2023-02-16T09:06:25.662Z,101701.56
2023-02-16T09:08:57.651Z,101693.53
2023-02-16T09:11:32.233Z,101683.84
2023-02-16T09:13:59.220Z,101697.31
2023-02-16T09:16:31.546Z,101689.63
2023-02-16T09:19:02.575Z,101691.06
2023-02-16T09:21:33.145Z,101695.69
2023-02-16T09:24:04.722Z,101702.72
2023-02-16T09:26:38.254Z,101698.63
2023-02-16T09:29:06.279Z,101708.13
2023-02-16T09:31:35.570Z,101700.94
2023-02-16T09:34:07.289Z,101690.41
2023-02-16T09:36:34.121Z,101689.09
2023-02-16T09:39:02.217Z,101689.41
2023-02-16T09:41:40.420Z,101700.41
2023-02-16T09:44:19.084Z,101698.72
2023-02-16T09:46:54.270Z,101693.13
2023-02-16T09:49:30.620Z,101698.19
2023-02-16T09:52:11.687Z,101702.44
2023-02-16T09:54:47.623Z,101699.47
2023-02-16T09:57:38.615Z,101688.94
2023-02-16T10:00:43.576Z,101685.94
2023-02-16T10:03:48.073Z,101695.78
2023-02-16T10:06:57.273Z,101700.84
2023-02-16T10:09:27.177Z,101691.75
2023-02-16T10:12:11.108Z,101694.34
2023-02-16T10:14:47.093Z,101696.75
2023-02-16T10:17:33.721Z,101700.34
2023-02-16T10:20:16.874Z,101705.53
2023-02-16T10:23:01.109Z,101704.31
2023-02-16T10:25:44.052Z,101710.31
2023-02-16T10:28:28.005Z,101711.78
2023-02-16T10:31:13.418Z,101707.75
2023-02-16T10:33:44.065Z,101698.44
2023-02-16T10:36:29.587Z,101707.78
2023-02-16T10:39:22.626Z,101704.31
2023-02-16T10:42:12.850Z,101704.13
2023-02-16T10:44:54.068Z,101705.53
2023-02-16T10:47:33.460Z,101709.63
2023-02-16T10:50:00.686Z,101703.81
2023-02-16T10:52:33.810Z,101698.22
2023-02-16T10:55:00.546Z,101699.50
2023-02-16T10:57:30.873Z,101695.06
2023-02-16T11:00:01.887Z,101702.78
2023-02-16T11:02:35.309Z,101703.59
2023-02-16T11:05:01.882Z,101708.84
2023-02-16T11:07:31.484Z,101700.09
2023-02-16T11:10:02.889Z,101714.09
2023-02-16T11:12:32.482Z,101709.31
2023-02-16T11:15:04.517Z,101701.28
2023-02-16T11:17:47.365Z,101704.41
2023-02-16T11:20:51.480Z,101699.84
2023-02-16T11:23:28.325Z,101704.28
2023-02-16T11:26:11.699Z,101699.03
2023-02-16T11:28:39.350Z,101697.06
2023-02-16T11:31:14.206Z,101700.53
2023-02-16T11:33:43.204Z,101695.06
2023-02-16T11:36:33.231Z,101693.44
2023-02-16T11:39:09.760Z,101682.03
2023-02-16T11:41:37.803Z,101678.19
2023-02-16T11:44:04.574Z,101678.31
2023-02-16T11:46:40.824Z,101687.19
2023-02-16T11:49:29.443Z,101682.53
2023-02-16T11:51:56.043Z,101677.19
2023-02-16T11:54:22.830Z,101682.25
2023-02-16T11:57:06.669Z,101681.53
2023-02-16T11:59:37.329Z,101680.28
2023-02-16T12:02:58.604Z,101674.13
2023-02-16T12:05:38.933Z,101668.19
2023-02-16T12:08:11.028Z,101655.69
2023-02-16T12:11:08.512Z,101658.72
2023-02-16T12:14:14.216Z,101649.00
2023-02-16T12:17:27.768Z,101647.72
2023-02-16T12:19:58.716Z,101636.00
2023-02-16T12:22:48.046Z,101645.72
2023-02-16T12:25:27.091Z,101649.91
2023-02-16T12:28:14.811Z,101642.78
2023-02-16T12:30:56.320Z,101638.91
2023-02-16T12:33:48.144Z,101637.75
2023-02-16T12:36:32.948Z,101636.59
2023-02-16T12:39:12.643Z,101639.03
2023-02-16T12:42:03.053Z,101638.59
2023-02-16T12:44:53.780Z,101628.41
2023-02-16T12:47:34.880Z,101634.13
2023-02-16T12:50:14.810Z,101625.16
2023-02-16T12:52:46.392Z,101616.50
2023-02-16T12:55:27.699Z,101615.00
2023-02-16T12:58:01.670Z,101623.31
2023-02-16T13:00:47.732Z,101606.63
2023-02-16T13:03:35.283Z,101606.06
2023-02-16T13:06:13.359Z,101594.22
2023-02-16T13:08:44.874Z,101588.88
2023-02-16T13:11:21.304Z,101601.50
2023-02-16T13:13:52.019Z,101608.28
2023-02-16T13:16:30.360Z,101616.22
2023-02-16T13:18:57.930Z,101619.84
2023-02-16T13:21:51.293Z,101627.75
2023-02-16T13:24:36.571Z,101624.63
2023-02-16T13:27:28.071Z,101619.84
2023-02-16T13:30:17.474Z,101610.84
2023-02-16T13:33:01.069Z,101610.38
2023-02-16T13:35:49.136Z,101609.31
2023-02-16T13:38:46.470Z,101593.34
2023-02-16T13:41:31.789Z,101597.03
2023-02-16T13:44:05.684Z,101592.38
2023-02-16T13:46:37.283Z,101592.84
2023-02-16T13:49:04.470Z,101588.88
2023-02-16T13:51:43.344Z,101585.63
2023-02-16T13:54:30.264Z,101575.22
2023-02-16T13:56:56.899Z,101564.09
2023-02-16T13:59:24.987Z,101549.28
2023-02-16T14:01:56.791Z,101541.69
2023-02-16T14:04:23.176Z,101534.91
2023-02-16T14:06:52.152Z,101531.75
2023-02-16T14:09:19.309Z,101526.59
2023-02-16T14:11:54.655Z,101519.00
2023-02-16T14:14:34.014Z,101514.25
2023-02-16T14:17:19.625Z,101519.47
2023-02-16T14:19:51.931Z,101526.72
2023-02-16T14:22:40.874Z,101530.34
2023-02-16T14:25:22.342Z,101521.81
2023-02-16T14:27:56.688Z,101521.81
2023-02-16T14:30:45.869Z,101525.34
2023-02-16T14:33:15.830Z,101528.59
2023-02-16T14:36:00.347Z,101536.88
2023-02-16T14:38:43.020Z,101530.00
2023-02-16T14:41:24.240Z,101530.38
2023-02-16T14:43:55.494Z,101532.38
2023-02-16T14:46:59.138Z,101526.06
2023-02-16T14:49:55.316Z,101524.78
2023-02-16T14:53:00.602Z,101526.19
2023-02-16T14:55:57.236Z,101520.03
2023-02-16T14:58:41.613Z,101522.00
2023-02-16T15:01:16.774Z,101513.38
2023-02-16T15:03:50.111Z,101518.53
2023-02-16T15:06:40.029Z,101518.75
2023-02-16T15:09:15.823Z,101519.09
2023-02-16T15:12:09.295Z,101521.78
2023-02-16T15:14:42.880Z,101521.31
2023-02-16T15:17:10.900Z,101522.84
2023-02-16T15:19:37.586Z,101513.97
2023-02-16T15:22:18.911Z,101507.75
2023-02-16T15:24:58.529Z,101488.84
2023-02-16T15:27:25.965Z,101491.31
2023-02-16T15:30:24.431Z,101479.53
2023-02-16T15:33:02.607Z,101480.69
2023-02-16T15:35:41.452Z,101478.38
2023-02-16T15:38:20.377Z,101469.59
2023-02-16T15:40:48.349Z,101476.81
2023-02-16T15:43:37.567Z,101476.50
2023-02-16T15:46:15.130Z,101476.13
2023-02-16T15:48:41.533Z,101475.81
2023-02-16T15:51:28.976Z,101480.00
2023-02-16T15:53:59.344Z,101475.66
2023-02-16T15:56:47.240Z,101479.06
2023-02-16T15:59:38.561Z,101479.75
2023-02-16T16:02:24.600Z,101488.50
2023-02-16T16:04:55.605Z,101480.09
2023-02-16T16:07:35.761Z,101479.16
2023-02-16T16:10:08.422Z,101477.53
2023-02-16T16:12:36.214Z,101481.03
2023-02-16T16:15:04.387Z,101480.56
2023-02-16T16:17:33.756Z,101473.69
2023-02-16T16:20:27.377Z,101481.47
2023-02-16T16:23:20.378Z,101465.06
2023-02-16T16:25:48.632Z,101467.50
2023-02-16T16:28:36.778Z,101459.00
2023-02-16T16:31:12.664Z,101459.00
2023-02-16T16:33:59.365Z,101460.50
2023-02-16T16:36:32.830Z,101465.75
2023-02-16T16:39:19.780Z,101464.47
2023-02-16T16:42:06.856Z,101460.50
2023-02-16T16:44:40.920Z,101463.31
2023-02-16T16:47:26.971Z,101456.31
2023-02-16T16:49:58.261Z,101449.53
2023-02-16T16:52:48.307Z,101453.03
2023-02-16T16:55:24.373Z,101453.88
2023-02-16T16:57:54.124Z,101450.22
2023-02-16T17:00:22.156Z,101455.81
2023-02-16T17:02:49.065Z,101443.81
2023-02-16T17:05:20.880Z,101451.75
2023-02-16T17:07:49.862Z,101449.78
2023-02-16T17:10:17.920Z,101449.78
2023-02-16T17:12:50.857Z,101443.72
2023-02-16T17:15:37.616Z,101445.69
2023-02-16T17:18:05.757Z,101442.69
2023-02-16T17:20:32.238Z,101449.09
2023-02-16T17:23:04.380Z,101443.50
2023-02-16T17:25:33.478Z,101434.75
2023-02-16T17:27:59.920Z,101433.19
2023-02-16T17:30:26.731Z,101426.47
2023-02-16T17:32:54.926Z,101432.53
2023-02-16T17:35:21.797Z,101428.53
2023-02-16T17:37:49.651Z,101435.44
2023-02-16T17:40:21.308Z,101431.81
2023-02-16T17:42:50.043Z,101424.69
2023-02-16T17:45:18.486Z,101418.28
2023-02-16T17:47:46.818Z,101419.09
2023-02-16T17:50:15.495Z,101424.38
2023-02-16T17:52:43.247Z,101424.38
2023-02-16T17:55:10.664Z,101416.78
2023-02-16T17:57:38.844Z,101424.38
2023-02-16T18:00:13.503Z,101419.59
2023-02-16T18:02:40.856Z,101413.63
2023-02-16T18:05:07.757Z,101425.28
2023-02-16T18:07:34.237Z,101424.94
2023-02-16T18:10:00.745Z,101425.28
2023-02-16T18:12:28.500Z,101423.31
2023-02-16T18:14:55.028Z,101426.56
2023-02-16T18:17:21.402Z,101425.41
2023-02-16T18:19:48.936Z,101424.22
2023-02-16T18:22:16.584Z,101430.31
2023-02-16T18:24:44.326Z,101424.72
2023-02-16T18:27:10.683Z,101433.56
2023-02-16T18:29:37.151Z,101427.97
2023-02-16T18:32:04.311Z,101437.16
2023-02-16T18:34:32.419Z,101440.47
2023-02-16T18:36:58.784Z,101437.28
2023-02-16T18:39:25.163Z,101434.94
2023-02-16T18:41:51.506Z,101446.16
2023-02-16T18:44:17.828Z,101448.63
2023-02-16T18:46:44.212Z,101437.75
2023-02-16T18:49:10.604Z,101444.19
2023-02-16T18:51:36.990Z,101442.53
2023-02-16T18:54:04.938Z,101426.47
2023-02-16T18:56:31.403Z,101423.19
2023-02-16T18:58:57.986Z,101417.47
2023-02-16T19:01:30.263Z,101424.13
2023-02-16T19:03:57.192Z,101426.00
2023-02-16T19:06:23.666Z,101416.66
2023-02-16T19:08:51.345Z,101420.16
2023-02-16T19:11:22.102Z,101417.25
2023-02-16T19:13:49.262Z,101412.34
2023-02-16T19:16:19.102Z,101418.31
2023-02-16T19:18:45.708Z,101414.69
2023-02-16T19:21:14.086Z,101422.59
2023-02-16T19:23:40.990Z,101418.63
2023-02-16T19:26:13.426Z,101429.00
2023-02-16T19:28:40.694Z,101435.41
2023-02-16T19:31:14.854Z,101436.94
2023-02-16T19:33:41.444Z,101442.19
2023-02-16T19:36:10.169Z,101448.16
2023-02-16T19:38:37.400Z,101443.34
2023-02-16T19:41:19.211Z,101446.84
2023-02-16T19:43:46.357Z,101436.94
2023-02-16T19:46:13.305Z,101441.72
2023-02-16T19:48:40.102Z,101447.34
2023-02-16T19:51:08.295Z,101442.88
2023-02-16T19:53:36.706Z,101432.53
2023-02-16T19:56:08.435Z,101440.44
2023-02-16T19:58:35.337Z,101437.63
2023-02-16T20:01:13.821Z,101443.94
2023-02-16T20:03:40.543Z,101438.81
2023-02-16T20:06:14.431Z,101429.97
2023-02-16T20:08:40.740Z,101428.31
2023-02-16T20:11:08.295Z,101428.53
2023-02-16T20:13:38.026Z,101430.28
2023-02-16T20:16:07.871Z,101435.28
2023-02-16T20:18:36.426Z,101431.06
2023-02-16T20:21:09.330Z,101430.84
2023-02-16T20:23:36.354Z,101424.28
2023-02-16T20:26:08.922Z,101428.81
2023-02-16T20:28:36.077Z,101426.72
2023-02-16T20:31:04.237Z,101421.31
2023-02-16T20:33:30.711Z,101418.03
2023-02-16T20:35:57.092Z,101408.69
2023-02-16T20:38:24.718Z,101414.19
2023-02-16T20:40:51.576Z,101411.25
2023-02-16T20:43:20.830Z,101411.59
2023-02-16T20:45:47.796Z,101417.88
2023-02-16T20:48:15.652Z,101414.25
2023-02-16T20:50:42.385Z,101410.16
2023-02-16T20:53:08.885Z,101412.16
2023-02-16T20:55:35.662Z,101415.28
2023-02-16T20:58:02.397Z,101423.69
2023-02-16T21:00:29.702Z,101413.66
2023-02-16T21:02:56.053Z,101406.41
2023-02-16T21:05:23.260Z,101419.56
2023-02-16T21:07:50.109Z,101409.22
2023-02-16T21:10:18.966Z,101409.22
2023-02-16T21:12:46.430Z,101404.78
2023-02-16T21:15:14.102Z,101406.78
2023-02-16T21:17:40.437Z,101399.22
2023-02-16T21:20:07.845Z,101404.78
2023-02-16T21:22:35.546Z,101402.34
2023-02-16T21:25:02.044Z,101409.56
2023-02-16T21:27:28.393Z,101410.75
2023-02-16T21:29:54.978Z,101413.88
2023-02-16T21:32:21.409Z,101407.13
2023-02-16T21:34:47.800Z,101403.16
2023-02-16T21:37:14.611Z,101409.09
2023-02-16T21:40:00.270Z,101400.72
2023-02-16T21:42:27.224Z,101408.75
2023-02-16T21:45:12.490Z,101392.00
2023-02-16T21:47:59.077Z,101388.03
2023-02-16T21:50:26.521Z,101384.41
2023-02-16T21:52:53.379Z,101371.97
2023-02-16T21:55:39.224Z,101369.50
2023-02-16T21:58:10.972Z,101360.66
2023-02-16T22:00:41.609Z,101362.84
2023-02-16T22:03:09.330Z,101357.28
2023-02-16T22:05:36.597Z,101353.19
2023-02-16T22:08:03.234Z,101349.91
2023-02-16T22:10:30.715Z,101346.63
2023-02-16T22:12:57.836Z,101351.41
2023-02-16T22:15:25.939Z,101358.16
2023-02-16T22:17:52.668Z,101362.94
2023-02-16T22:20:19.493Z,101347.34
2023-02-16T22:22:46.107Z,101346.19
2023-02-16T22:25:13.367Z,101344.19
2023-02-16T22:27:40.263Z,101349.78
2023-02-16T22:30:10.333Z,101350.94
2023-02-16T22:32:36.999Z,101354.19
2023-02-16T22:35:03.894Z,101341.88
2023-02-16T22:37:32.483Z,101340.72
2023-02-16T22:39:59.955Z,101335.25
2023-02-16T22:42:29.270Z,101346.19
2023-02-16T22:44:57.054Z,101345.38
2023-02-16T22:47:25.855Z,101342.94
2023-02-16T22:49:52.171Z,101334.09
2023-02-16T22:52:18.742Z,101334.44
2023-02-16T22:54:45.357Z,101339.56
2023-02-16T22:57:11.758Z,101339.41
2023-02-16T22:59:38.654Z,101331.75
2023-02-16T23:02:04.983Z,101334.53
2023-02-16T23:04:31.602Z,101343.59
2023-02-16T23:06:57.945Z,101351.16
2023-02-16T23:09:24.545Z,101348.69
2023-02-16T23:11:51.163Z,101353.47
2023-02-16T23:14:19.173Z,101348.69
2023-02-16T23:16:47.419Z,101352.34
2023-02-16T23:19:16.901Z,101339.19
2023-02-16T23:21:43.860Z,101351.63
2023-02-16T23:24:13.904Z,101343.59
2023-02-16T23:26:41.331Z,101341.25
2023-02-16T23:29:08.340Z,101344.88
2023-02-16T23:31:36.417Z,101344.56
2023-02-16T23:34:04.853Z,101347.81
2023-02-16T23:36:32.415Z,101349.09
2023-02-16T23:39:14.192Z,101345.97
2023-02-16T23:41:41.520Z,101348.88
2023-02-16T23:44:09.540Z,101338.53
2023-02-16T23:46:36.069Z,101331.41
2023-02-16T23:49:02.428Z,101333.06
2023-02-16T23:51:28.822Z,101338.19
2023-02-16T23:53:55.905Z,101335.03
2023-02-16T23:56:25.160Z,101333.06
2023-02-16T23:58:52.767Z,101338.31
